Oasis of the Seas — C6XS7 — position and weather

sailwx.info

Track history (hours):
 
Tides and Currents Weather Stations Pressure Air Temp Water Temp Dewpoint Dewpoint Depression Visibility Wind Speed Wind Dir Waves Ship Positions

Oasis of the Seas

Last reported at 2020-Mar-31 06:27 UTC. Time now 2020-Mar-31 06:57 UTC.
Position N 25°29' W 079°48'.

Length 360 m; draft 9.3 m.

Type: Passenger vessel. MMSI: 311020600.

Date/timePositionNaut miles runAvg speedWind from/ knotsBaromVisibWave heightAir tempDewpointWater temp
2020-Mar-31 06:27N 25°29' W 079°48'10 6.7
2020-Mar-31 05:00N 25°39' W 079°46'3 6.2
2020-Mar-31 04:31N 25°42' W 079°46'5 5.2
2020-Mar-31 03:31N 25°47' W 079°47'22 8.6
2020-Mar-31 01:00N 26°05' W 079°60'4 2.9
2020-Mar-30 23:31N 26°06' W 080°05'2 1.0
2020-Mar-30 21:30N 26°05' W 080°03'511.0
2020-Mar-30 21:00N 26°02' W 079°57'7 2.1
2020-Mar-30 17:30N 25°59' W 079°50'3 3.1
2020-Mar-30 16:30N 26°02' W 079°51'7 3.3
2020-Mar-30 14:30N 26°06' W 079°57'1 2.9
2020-Mar-30 14:00N 26°04' W 079°57'15 7.6
2020-Mar-30 12:00N 26°03' W 079°40'15 7.6
2020-Mar-30 10:04N 26°11' W 079°26'32 7.8
2020-Mar-30 06:00N 26°15' W 078°51'  
2020-Mar-25 01:30N 25°50' W 079°53'510.4
2020-Mar-25 01:01N 25°49' W 079°59'611.0
2020-Mar-25 00:31N 25°46' W 080°04'5 3.2
2020-Mar-24 22:59N 25°46' W 080°10'0 0.0
2020-Mar-24 21:29N 25°46' W 080°10'0 0.0
2020-Mar-24 19:59N 25°46' W 080°10'0 0.0
2020-Mar-24 19:29N 25°46' W 080°10'0 0.0
2020-Mar-24 18:59N 25°46' W 080°10'0 0.0
2020-Mar-24 17:29N 25°46' W 080°10'0 0.0
2020-Mar-24 16:59N 25°46' W 080°10'0 0.0
2020-Mar-24 15:29N 25°46' W 080°10'0 0.0
2020-Mar-24 13:59N 25°46' W 080°10'0 0.0
2020-Mar-24 13:29N 25°46' W 080°10'0 0.0
2020-Mar-24 12:59N 25°46' W 080°10'13 4.4
2020-Mar-24 10:00N 25°51' W 079°56'1510.1
2020-Mar-24 08:30N 25°59' W 079°42'5 9.1
2020-Mar-24 08:00N 26°01' W 079°37'6 9.0
2020-Mar-24 07:19N 26°05' W 079°32'  
2020-Mar-21 18:00N 26°17' W 079°25'  
Track history (hours):
 
Tides and Currents Weather Stations Pressure Air Temp Water Temp Dewpoint Dewpoint Depression Visibility Wind Speed Wind Dir Waves Ship Positions

Oasis of the Seas

Last reported at 2020-Mar-31 06:27 UTC. Time now 2020-Mar-31 06:57 UTC.
Position N 25°29' W 079°48'.

Length 360 m; draft 9.3 m.

Type: Passenger vessel. MMSI: 311020600.

Date/timePositionNaut miles runAvg speedWind from/ knotsBaromVisibWave heightAir tempDewpointWater temp
2020-Mar-31 06:27N 25°29' W 079°48'10 6.7
2020-Mar-31 05:00N 25°39' W 079°46'3 6.2
2020-Mar-31 04:31N 25°42' W 079°46'5 5.2
2020-Mar-31 03:31N 25°47' W 079°47'22 8.6
2020-Mar-31 01:00N 26°05' W 079°60'4 2.9
2020-Mar-30 23:31N 26°06' W 080°05'2 1.0
2020-Mar-30 21:30N 26°05' W 080°03'511.0
2020-Mar-30 21:00N 26°02' W 079°57'7 2.1
2020-Mar-30 17:30N 25°59' W 079°50'3 3.1
2020-Mar-30 16:30N 26°02' W 079°51'7 3.3
2020-Mar-30 14:30N 26°06' W 079°57'1 2.9
2020-Mar-30 14:00N 26°04' W 079°57'15 7.6
2020-Mar-30 12:00N 26°03' W 079°40'15 7.6
2020-Mar-30 10:04N 26°11' W 079°26'32 7.8
2020-Mar-30 06:00N 26°15' W 078°51'  
2020-Mar-25 01:30N 25°50' W 079°53'510.4
2020-Mar-25 01:01N 25°49' W 079°59'611.0
2020-Mar-25 00:31N 25°46' W 080°04'5 3.2
2020-Mar-24 22:59N 25°46' W 080°10'0 0.0
2020-Mar-24 21:29N 25°46' W 080°10'0 0.0
2020-Mar-24 19:59N 25°46' W 080°10'0 0.0
2020-Mar-24 19:29N 25°46' W 080°10'0 0.0
2020-Mar-24 18:59N 25°46' W 080°10'0 0.0
2020-Mar-24 17:29N 25°46' W 080°10'0 0.0
2020-Mar-24 16:59N 25°46' W 080°10'0 0.0
2020-Mar-24 15:29N 25°46' W 080°10'0 0.0
2020-Mar-24 13:59N 25°46' W 080°10'0 0.0
2020-Mar-24 13:29N 25°46' W 080°10'0 0.0
2020-Mar-24 12:59N 25°46' W 080°10'13 4.4
2020-Mar-24 10:00N 25°51' W 079°56'1510.1
2020-Mar-24 08:30N 25°59' W 079°42'5 9.1
2020-Mar-24 08:00N 26°01' W 079°37'6 9.0
2020-Mar-24 07:19N 26°05' W 079°32'  
2020-Mar-21 18:00N 26°17' W 079°25'  

Dump ship's entire track history